Aérodrome :
LOGIN :

S'inscrire | Disclaimer

   EN    FR    IT 

 










Légende :    VFR   VFR Marginal   IFR   IFR Intensif   IFR Très Intensif
Visi : 
Plafond : 
>= 8 km
>= 3000ft
5 à 8 km
1000 à 3000 ft
1500m à 5 km
500 à 1000 ft
800 à 1500m
200 à 500 ft
< 800m
< 200 ft
Symboles :   Orages  Brouillard  Fortes neiges  Fortes précipitations  Vent > 20 kt
SIGMETs :   Divers  Orages  Givrage  Turbulence  Onde Orograph.  Cendres Volcan.







- Altitude de l'aérodrome : -15 ft
- Code IATA : RTM


EHRD - Rotterdam Zestienhoven

DERNIER METAR :
  • 181825Z AUTO 35004KT 320V020 8000 NSC 05/04 Q1029 NOSIG

METARs EXPIRÉS :
  • 181755Z AUTO 35005KT 320V020 9000 SCT033 BKN038 06/05 Q1029 NOSIG
  • 181725Z AUTO 35007KT 320V020 9999 OVC031 07/05 Q1028 NOSIG
  • 181655Z AUTO 34009KT 310V020 9999 SCT029 OVC033 07/05 Q1028 NOSIG
  • 181625Z AUTO 35007KT 290V030 9999 FEW014 OVC029 08/05 Q1028 NOSIG
  • 181555Z AUTO 35009KT 310V020 9999 FEW014 OVC030 08/05 Q1027 NOSIG

TAF TAF EHRD
Valide du 18 à 18h jusqu'au 20 à 00h UTC


181713Z 1818/1924 31006KT 9999 SCT020
BECMG 1905/1908 25007KT
PROB40
TEMPO 1905/1912 6000 -RADZ BKN018
BECMG 1913/1916 BKN008
PROB30
TEMPO 1913/1918 4000 DZ BKN005
BECMG 1918/1921 VRB03KT 4000 BR -DZ SCT002 BKN003
Pas de NOTAMs connus pour ce terrain.



MET'MAP, la Météo Aéronautique d'un coup d'oeil ! - Copyright ORBIFLY Décembre 2007 - Disclaimer

ORBIFLY MET'MAP TEAM :

Programmation & Développement : Alexandra Zaïnal
Conception & Développement : Baudouin d'Aumeries
Co-Programmation & Développement : Marc-Olivier Méhu
Soutien technique & logistique : Manuel Goepfert

Contact : metmap@orbifly.com




SOURCES & CREDITS :

   NOAA